createdAt,value
2023-03-22T00:03:28.912Z,19.1
2023-03-22T00:08:35.514Z,18.9
2023-03-22T00:14:14.402Z,18.8
2023-03-22T00:19:51.759Z,18.8
2023-03-22T00:25:44.653Z,18.9
2023-03-22T00:31:23.005Z,18.9
2023-03-22T00:37:15.271Z,18.9
2023-03-22T00:43:08.869Z,18.8
2023-03-22T00:54:24.374Z,18.5
2023-03-22T01:00:17.105Z,18.4
2023-03-22T01:06:10.742Z,18.6
2023-03-22T01:17:11.441Z,18.6
2023-03-22T01:22:47.429Z,18.6
2023-03-22T01:28:43.454Z,18.4
2023-03-22T01:34:36.832Z,18.3
2023-03-22T01:40:29.882Z,18.2
2023-03-22T01:46:22.817Z,18.4
2023-03-22T01:52:00.763Z,18.4
2023-03-22T01:57:53.564Z,18.4
2023-03-22T02:03:46.617Z,18.3
2023-03-22T02:09:24.223Z,18.3
2023-03-22T02:15:04.782Z,18.1
2023-03-22T02:20:58.132Z,18.1
2023-03-22T02:26:50.996Z,18.3
2023-03-22T02:32:28.416Z,18.4
2023-03-22T02:37:50.540Z,18.4
2023-03-22T02:43:44.426Z,18.3
2023-03-22T02:49:22.277Z,18.1
2023-03-22T02:55:17.164Z,18
2023-03-22T03:01:11.200Z,18.2
2023-03-22T03:07:03.430Z,18.3
2023-03-22T03:12:56.549Z,18.3
2023-03-22T03:18:34.324Z,18.1
2023-03-22T03:24:27.152Z,18
2023-03-22T03:30:04.091Z,17.9
2023-03-22T03:35:58.898Z,18.1
2023-03-22T03:41:35.386Z,18.2
2023-03-22T03:47:28.012Z,18.1
2023-03-22T03:53:06.509Z,18.1
2023-03-22T03:58:13.280Z,17.9
2023-03-22T04:03:50.834Z,17.8
2023-03-22T04:09:44.592Z,17.9
2023-03-22T04:15:38.177Z,18.1
2023-03-22T04:21:31.094Z,18.1
2023-03-22T04:27:24.302Z,18
2023-03-22T04:33:01.367Z,17.9
2023-03-22T04:38:38.869Z,17.8
2023-03-22T04:44:32.887Z,17.8
2023-03-22T04:50:26.493Z,18
2023-03-22T04:55:47.991Z,18.1
2023-03-22T05:01:41.764Z,17.9
2023-03-22T05:07:34.647Z,17.9
2023-03-22T05:13:29.559Z,17.8
2023-03-22T05:19:23.054Z,17.8
2023-03-22T05:25:16.552Z,18
2023-03-22T05:30:56.634Z,18
2023-03-22T05:36:35.596Z,17.9
2023-03-22T05:42:13.065Z,17.8
2023-03-22T05:48:05.733Z,17.7
2023-03-22T05:53:28.755Z,17.7
2023-03-22T05:59:24.015Z,17.9
2023-03-22T06:05:17.224Z,17.9
2023-03-22T06:11:10.908Z,17.9
2023-03-22T06:17:03.446Z,17.8
2023-03-22T06:22:55.489Z,17.7
2023-03-22T06:28:48.212Z,17.7
2023-03-22T06:34:26.176Z,17.9
2023-03-22T06:40:18.672Z,17.9
2023-03-22T06:46:11.107Z,17.8
2023-03-22T06:52:06.970Z,17.7
2023-03-22T06:57:59.164Z,17.6
2023-03-22T07:03:52.536Z,17.6
2023-03-22T07:09:14.487Z,17.8
2023-03-22T07:15:07.384Z,17.9
2023-03-22T07:21:02.451Z,17.8
2023-03-22T07:27:09.063Z,17.8
2023-03-22T07:33:01.697Z,17.6
2023-03-22T07:38:54.760Z,17.6
2023-03-22T07:45:07.835Z,17.8
2023-03-22T07:50:59.883Z,17.8
2023-03-22T07:57:02.980Z,17.6
2023-03-22T08:02:43.450Z,17.6
2023-03-22T08:08:34.454Z,17.4
2023-03-22T08:14:35.832Z,17.3
2023-03-22T08:20:29.415Z,17.3
2023-03-22T08:26:30.160Z,17.4
2023-03-22T08:32:23.607Z,17.4
2023-03-22T08:38:15.711Z,17.4
2023-03-22T08:43:53.361Z,17.4
2023-03-22T08:49:49.144Z,17.3
2023-03-22T08:55:44.008Z,17.2
2023-03-22T09:01:54.875Z,17.1
2023-03-22T09:18:51.515Z,17.2
2023-03-22T09:24:37.161Z,17.3
2023-03-22T09:30:32.738Z,17.3
2023-03-22T09:36:25.824Z,17.3
2023-03-22T09:42:19.125Z,17.2
2023-03-22T09:48:03.710Z,17.1
2023-03-22T09:54:15.649Z,17.1
2023-03-22T10:05:50.519Z,16.9
2023-03-22T10:11:45.557Z,17.1
2023-03-22T10:17:23.529Z,17.3
2023-03-22T10:22:45.742Z,17.4
2023-03-22T10:28:41.970Z,17.3
2023-03-22T10:34:37.538Z,17.3
2023-03-22T10:40:16.256Z,17.1
2023-03-22T10:51:48.119Z,17.1
2023-03-22T10:57:40.080Z,17.3
2023-03-22T11:03:33.331Z,17.3
2023-03-22T11:09:11.389Z,17.3
2023-03-22T11:15:04.742Z,17.1
2023-03-22T11:20:59.095Z,17.1
2023-03-22T11:32:33.032Z,16.9
2023-03-22T11:38:28.379Z,16.8
2023-03-22T11:44:25.057Z,16.9
2023-03-22T11:50:18.533Z,17.1
2023-03-22T11:56:12.820Z,17.1
2023-03-22T12:01:50.263Z,17.1
2023-03-22T12:07:32.419Z,17.1
2023-03-22T12:18:33.893Z,16.9
2023-03-22T12:24:10.581Z,16.9
2023-03-22T12:30:03.829Z,16.8
2023-03-22T12:36:12.972Z,16.9
2023-03-22T12:41:49.989Z,17.1
2023-03-22T12:48:07.010Z,17.1
2023-03-22T12:53:52.211Z,17.1
2023-03-22T12:59:43.721Z,17.1
2023-03-22T13:11:18.052Z,16.9
2023-03-22T13:17:06.045Z,16.9
2023-03-22T13:23:01.630Z,16.9
2023-03-22T13:28:10.045Z,17.1
2023-03-22T13:34:03.415Z,17.2
2023-03-22T13:39:43.039Z,17.2
2023-03-22T13:45:35.728Z,17.1
2023-03-22T13:56:53.386Z,16.9
2023-03-22T14:02:57.838Z,16.9
2023-03-22T14:08:50.687Z,16.9
2023-03-22T14:14:27.981Z,16.9
2023-03-22T14:20:21.642Z,16.9
2023-03-22T14:49:20.780Z,16.7
2023-03-22T14:54:57.573Z,16.6
2023-03-22T15:00:54.358Z,16.6
2023-03-22T15:06:51.188Z,16.6
2023-03-22T15:12:42.780Z,16.5
2023-03-22T15:18:18.479Z,16.4
2023-03-22T15:24:12.524Z,16.4
2023-03-22T15:29:48.935Z,16.4
2023-03-22T15:35:40.265Z,16.4
2023-03-22T15:41:45.533Z,16.3
2023-03-22T15:47:22.074Z,16.3
2023-03-22T15:53:14.620Z,16.3
2023-03-22T15:58:55.984Z,16.3
2023-03-22T16:04:32.459Z,16.2
2023-03-22T16:10:07.211Z,16.2
2023-03-22T16:15:45.973Z,16.2
2023-03-22T16:21:22.250Z,16.1
2023-03-22T16:27:12.827Z,16.1
2023-03-22T16:33:11.247Z,16.1
2023-03-22T16:39:02.443Z,16.1
2023-03-22T16:44:38.784Z,16.4
2023-03-22T16:50:33.959Z,27.9
2023-03-22T16:56:27.471Z,34.4
2023-03-22T17:02:20.453Z,38.2
2023-03-22T17:07:58.319Z,39.6
2023-03-22T17:13:50.889Z,40.4
2023-03-22T17:19:26.471Z,41.7
2023-03-22T17:25:03.340Z,41.9
2023-03-22T17:30:56.702Z,41.2
2023-03-22T17:37:26.869Z,43
2023-03-22T17:44:40.013Z,43.6
2023-03-22T17:52:05.777Z,43.5
2023-03-22T18:00:46.438Z,42.3
2023-03-22T18:06:56.515Z,42.1
2023-03-22T18:13:03.673Z,42.3
2023-03-22T18:19:37.958Z,44.4
2023-03-22T18:25:51.874Z,42.9
2023-03-22T18:32:09.030Z,41.9
2023-03-22T19:01:05.791Z,41.9
2023-03-22T19:07:35.834Z,39.7
2023-03-22T19:14:13.939Z,37.9
2023-03-22T19:21:32.192Z,39.9
2023-03-22T19:27:41.386Z,38.1
2023-03-22T19:34:06.588Z,41.5
2023-03-22T19:40:59.561Z,38.4
2023-03-22T19:47:34.047Z,37.9
2023-03-22T19:54:24.130Z,37.9
2023-03-22T20:00:52.593Z,39.1
2023-03-22T20:07:11.742Z,38.3
2023-03-22T20:12:48.221Z,36.8
2023-03-22T20:18:35.905Z,35.4
2023-03-22T20:24:28.334Z,33.8
2023-03-22T20:30:03.581Z,32.1
2023-03-22T20:35:26.467Z,30.9
2023-03-22T20:40:47.772Z,31
2023-03-22T20:46:39.175Z,30.8
2023-03-22T20:52:17.531Z,30.1
2023-03-22T20:58:08.928Z,29.2
2023-03-22T21:03:45.424Z,28.4
2023-03-22T21:09:38.808Z,27.6
2023-03-22T21:15:29.900Z,27
2023-03-22T21:21:35.190Z,26.4
2023-03-22T21:27:33.853Z,25.9
2023-03-22T21:33:11.705Z,25.5
2023-03-22T21:39:02.558Z,25.2
2023-03-22T21:44:39.667Z,24.9
2023-03-22T21:50:30.741Z,24.6
2023-03-22T21:56:22.033Z,24.2
2023-03-22T22:02:16.128Z,23.6
2023-03-22T22:07:53.333Z,23.1
2023-03-22T22:13:29.636Z,22.8
2023-03-22T22:19:07.398Z,22.6
2023-03-22T22:24:45.187Z,22.4
2023-03-22T22:30:36.328Z,22.3
2023-03-22T22:36:29.454Z,22.9
2023-03-22T22:42:22.688Z,22.1
2023-03-22T22:47:59.294Z,21.4
2023-03-22T22:53:53.343Z,20.9
2023-03-22T22:59:31.317Z,20.5
2023-03-22T23:05:07.819Z,20.1
2023-03-22T23:10:45.388Z,19.8
2023-03-22T23:16:34.207Z,19.6
2023-03-22T23:22:02.929Z,19.3
2023-03-22T23:28:03.324Z,19.1
2023-03-22T23:33:55.035Z,18.9
2023-03-22T23:45:10.286Z,18.5
2023-03-22T23:51:05.609Z,18.4
2023-03-22T23:56:43.194Z,18.3
